SWA1173 KSJC-KONT
Flight info
| Callsign | SWA1173 |
|---|---|
| Flight time | 0h 52m |
| Altitude | 29000 |
| Route | SPTNS1 JFREE LOSHN EHF ZIGGY8 |
| Aircraft | B738/M-SDE2E3FGHIRWXY/LB1 |
Departure
| Time | 2026-05-06 01:38 |
|---|---|
| Airport | Norman Y. Mineta San Jose International Airport (KSJC) |
Arrival
| Time | 2026-05-06 02:30 |
|---|---|
| Airport | Ontario International Airport (KONT) |
| Time | Latitude | Longitude | Altitude | Speed | Heading |
|---|---|---|---|---|---|
| 2026-05-06 01:26 | 37.36370 | -121.92397 | 54 ft | 0 kts | 49° |
| 2026-05-06 01:32 | 37.36356 | -121.92417 | 56 ft | 2 kts | 49° |
| 2026-05-06 01:33 | 37.36345 | -121.92433 | 52 ft | 2 kts | 49° |
| 2026-05-06 01:33 | 37.36335 | -121.92450 | 55 ft | 2 kts | 83° |
| 2026-05-06 01:33 | 37.36336 | -121.92464 | 55 ft | 2 kts | 124° |
| 2026-05-06 01:33 | 37.36338 | -121.92469 | 54 ft | 0 kts | 134° |
| 2026-05-06 01:34 | 37.36334 | -121.92463 | 55 ft | 3 kts | 135° |
| 2026-05-06 01:34 | 37.36297 | -121.92425 | 56 ft | 11 kts | 140° |
| 2026-05-06 01:35 | 37.36217 | -121.92343 | 56 ft | 19 kts | 143° |
| 2026-05-06 01:35 | 37.36096 | -121.92220 | 53 ft | 26 kts | 139° |
| 2026-05-06 01:35 | 37.35948 | -121.92056 | 55 ft | 31 kts | 138° |
| 2026-05-06 01:35 | 37.35791 | -121.91879 | 55 ft | 30 kts | 138° |
| 2026-05-06 01:36 | 37.35642 | -121.91709 | 57 ft | 28 kts | 139° |
| 2026-05-06 01:36 | 37.35483 | -121.91593 | 57 ft | 26 kts | 184° |
| 2026-05-06 01:36 | 37.35374 | -121.91662 | 57 ft | 7 kts | 266° |
| 2026-05-06 01:36 | 37.35398 | -121.91713 | 59 ft | 7 kts | 318° |
| 2026-05-06 01:37 | 37.35434 | -121.91753 | 57 ft | 7 kts | 318° |
| 2026-05-06 01:37 | 37.35579 | -121.91915 | 56 ft | 68 kts | 319° |
| 2026-05-06 01:37 | 37.36153 | -121.92538 | 61 ft | 147 kts | 319° |
| 2026-05-06 01:37 | 37.37062 | -121.93541 | 361 ft | 192 kts | 318° |
| 2026-05-06 01:38 | 37.38079 | -121.94731 | 1047 ft | 213 kts | 317° |
| 2026-05-06 01:38 | 37.39290 | -121.96047 | 1374 ft | 246 kts | 318° |
| 2026-05-06 01:38 | 37.40808 | -121.97331 | 1502 ft | 285 kts | 339° |
| 2026-05-06 01:38 | 37.42849 | -121.97433 | 1976 ft | 307 kts | 11° |
| 2026-05-06 01:39 | 37.44680 | -121.96167 | 3007 ft | 293 kts | 43° |
| 2026-05-06 01:39 | 37.45754 | -121.94173 | 4544 ft | 266 kts | 69° |
| 2026-05-06 01:39 | 37.46045 | -121.91874 | 4903 ft | 266 kts | 97° |
| 2026-05-06 01:39 | 37.45402 | -121.89697 | 4998 ft | 272 kts | 123° |
| 2026-05-06 01:40 | 37.44085 | -121.87984 | 5007 ft | 275 kts | 143° |
| 2026-05-06 01:40 | 37.42497 | -121.86639 | 5013 ft | 275 kts | 147° |
| 2026-05-06 01:40 | 37.40930 | -121.85241 | 5109 ft | 278 kts | 140° |
| 2026-05-06 01:40 | 37.39496 | -121.83599 | 5862 ft | 279 kts | 134° |
| 2026-05-06 01:41 | 37.38101 | -121.81869 | 6758 ft | 284 kts | 133° |
| 2026-05-06 01:41 | 37.36716 | -121.80128 | 7588 ft | 287 kts | 132° |
| 2026-05-06 01:41 | 37.35281 | -121.78328 | 8482 ft | 289 kts | 132° |
| 2026-05-06 01:41 | 37.33873 | -121.76565 | 9391 ft | 289 kts | 130° |
| 2026-05-06 01:42 | 37.32461 | -121.74708 | 10090 ft | 299 kts | 131° |
| 2026-05-06 01:42 | 37.30939 | -121.72817 | 10456 ft | 321 kts | 131° |
| 2026-05-06 01:42 | 37.29287 | -121.70770 | 10643 ft | 345 kts | 132° |
| 2026-05-06 01:42 | 37.27511 | -121.68592 | 10915 ft | 366 kts | 132° |
| 2026-05-06 01:43 | 37.25657 | -121.66333 | 11520 ft | 373 kts | 132° |
| 2026-05-06 01:43 | 37.23789 | -121.64054 | 12312 ft | 375 kts | 132° |
| 2026-05-06 01:43 | 37.21913 | -121.61762 | 13066 ft | 378 kts | 132° |
| 2026-05-06 01:43 | 37.20020 | -121.59448 | 13788 ft | 382 kts | 132° |
| 2026-05-06 01:44 | 37.18108 | -121.57109 | 14463 ft | 385 kts | 132° |
| 2026-05-06 01:44 | 37.16179 | -121.54745 | 15073 ft | 390 kts | 132° |
| 2026-05-06 01:44 | 37.14225 | -121.52351 | 15699 ft | 394 kts | 132° |
| 2026-05-06 01:44 | 37.12287 | -121.49978 | 16400 ft | 396 kts | 131° |
| 2026-05-06 01:45 | 37.10306 | -121.47554 | 17057 ft | 400 kts | 131° |
| 2026-05-06 01:45 | 37.08301 | -121.45100 | 17654 ft | 405 kts | 131° |
| 2026-05-06 01:45 | 37.06273 | -121.42620 | 18271 ft | 409 kts | 131° |
| 2026-05-06 01:45 | 37.04231 | -121.40128 | 18836 ft | 412 kts | 131° |
| 2026-05-06 01:46 | 37.02171 | -121.37617 | 19355 ft | 414 kts | 131° |
| 2026-05-06 01:46 | 37.00102 | -121.35099 | 19977 ft | 416 kts | 131° |
| 2026-05-06 01:46 | 36.98024 | -121.32568 | 20537 ft | 418 kts | 131° |
| 2026-05-06 01:46 | 36.95929 | -121.30019 | 21044 ft | 422 kts | 131° |
| 2026-05-06 01:47 | 36.93820 | -121.27453 | 21615 ft | 425 kts | 130° |
| 2026-05-06 01:47 | 36.91689 | -121.24863 | 22102 ft | 428 kts | 130° |
| 2026-05-06 01:47 | 36.89546 | -121.22262 | 22716 ft | 429 kts | 130° |
| 2026-05-06 01:47 | 36.87400 | -121.19659 | 23258 ft | 431 kts | 130° |
| 2026-05-06 01:48 | 36.85236 | -121.17037 | 23711 ft | 435 kts | 130° |
| 2026-05-06 01:48 | 36.83053 | -121.14394 | 24103 ft | 438 kts | 130° |
| 2026-05-06 01:48 | 36.80862 | -121.11742 | 24521 ft | 440 kts | 130° |
| 2026-05-06 01:48 | 36.78657 | -121.09079 | 24971 ft | 442 kts | 130° |
| 2026-05-06 01:49 | 36.76434 | -121.06393 | 25350 ft | 444 kts | 130° |
| 2026-05-06 01:49 | 36.74239 | -121.03744 | 25736 ft | 447 kts | 129° |
| 2026-05-06 01:49 | 36.71999 | -121.01043 | 26095 ft | 449 kts | 129° |
| 2026-05-06 01:49 | 36.69753 | -120.98336 | 26461 ft | 451 kts | 129° |
| 2026-05-06 01:50 | 36.67486 | -120.95607 | 26852 ft | 453 kts | 129° |
| 2026-05-06 01:50 | 36.65216 | -120.92881 | 27234 ft | 454 kts | 129° |
| 2026-05-06 01:50 | 36.62919 | -120.90167 | 27644 ft | 455 kts | 129° |
| 2026-05-06 01:50 | 36.60793 | -120.87682 | 28128 ft | 453 kts | 129° |
| 2026-05-06 01:51 | 36.58708 | -120.85259 | 28671 ft | 450 kts | 129° |
| 2026-05-06 01:51 | 36.56682 | -120.82903 | 28903 ft | 453 kts | 129° |
| 2026-05-06 01:51 | 36.52064 | -120.77521 | 28882 ft | 453 kts | 129° |
| 2026-05-06 01:52 | 36.47501 | -120.72213 | 28886 ft | 448 kts | 129° |
| 2026-05-06 01:52 | 36.42940 | -120.66900 | 28894 ft | 451 kts | 129° |
| 2026-05-06 01:53 | 36.38341 | -120.61551 | 28889 ft | 454 kts | 129° |
| 2026-05-06 01:53 | 36.33724 | -120.56198 | 28878 ft | 455 kts | 129° |
| 2026-05-06 01:54 | 36.29416 | -120.50556 | 28871 ft | 446 kts | 121° |
| 2026-05-06 01:54 | 36.25523 | -120.44541 | 28890 ft | 456 kts | 121° |
| 2026-05-06 01:55 | 36.21530 | -120.38384 | 28891 ft | 459 kts | 121° |
| 2026-05-06 01:55 | 36.17488 | -120.32261 | 28871 ft | 460 kts | 122° |
| 2026-05-06 01:56 | 36.13453 | -120.26209 | 28856 ft | 449 kts | 122° |
| 2026-05-06 01:56 | 36.09476 | -120.20253 | 28870 ft | 450 kts | 122° |
| 2026-05-06 01:57 | 36.05481 | -120.14268 | 28869 ft | 453 kts | 122° |
| 2026-05-06 01:57 | 36.01460 | -120.08259 | 28863 ft | 455 kts | 122° |
| 2026-05-06 01:58 | 35.97426 | -120.02242 | 28855 ft | 455 kts | 122° |
| 2026-05-06 01:58 | 35.93393 | -119.96242 | 28846 ft | 454 kts | 122° |
| 2026-05-06 01:59 | 35.89370 | -119.90266 | 28849 ft | 452 kts | 122° |
| 2026-05-06 01:59 | 35.85363 | -119.84323 | 28856 ft | 450 kts | 121° |
| 2026-05-06 02:00 | 35.81359 | -119.78393 | 28852 ft | 448 kts | 121° |
| 2026-05-06 02:00 | 35.77374 | -119.72501 | 28840 ft | 447 kts | 121° |
| 2026-05-06 02:01 | 35.73422 | -119.66669 | 28844 ft | 446 kts | 121° |
| 2026-05-06 02:01 | 35.69444 | -119.60807 | 28869 ft | 446 kts | 121° |
| 2026-05-06 02:02 | 35.65464 | -119.54952 | 28851 ft | 446 kts | 121° |
| 2026-05-06 02:02 | 35.61477 | -119.49098 | 28904 ft | 446 kts | 121° |
| 2026-05-06 02:03 | 35.57516 | -119.43292 | 28922 ft | 446 kts | 121° |
| 2026-05-06 02:03 | 35.53529 | -119.37458 | 28962 ft | 446 kts | 121° |
| 2026-05-06 02:04 | 35.49526 | -119.31609 | 28937 ft | 447 kts | 121° |
| 2026-05-06 02:04 | 35.45519 | -119.25767 | 28927 ft | 447 kts | 121° |
| 2026-05-06 02:05 | 35.41510 | -119.19931 | 28922 ft | 447 kts | 121° |
| 2026-05-06 02:05 | 35.37502 | -119.14106 | 28935 ft | 447 kts | 122° |
| 2026-05-06 02:06 | 35.33493 | -119.08289 | 28923 ft | 446 kts | 122° |
| 2026-05-06 02:06 | 35.29490 | -119.02491 | 28942 ft | 446 kts | 122° |
| 2026-05-06 02:07 | 35.25481 | -118.96693 | 28944 ft | 445 kts | 122° |
| 2026-05-06 02:07 | 35.21478 | -118.90913 | 28972 ft | 445 kts | 122° |
| 2026-05-06 02:08 | 35.17470 | -118.85137 | 28946 ft | 445 kts | 122° |
| 2026-05-06 02:08 | 35.13468 | -118.79378 | 28951 ft | 444 kts | 122° |
| 2026-05-06 02:09 | 35.09480 | -118.73641 | 28944 ft | 441 kts | 122° |
| 2026-05-06 02:09 | 35.05543 | -118.67953 | 28986 ft | 440 kts | 122° |
| 2026-05-06 02:10 | 35.01620 | -118.62198 | 28971 ft | 442 kts | 122° |
| 2026-05-06 02:10 | 34.97677 | -118.56430 | 28959 ft | 443 kts | 122° |
| 2026-05-06 02:11 | 34.93721 | -118.50666 | 28949 ft | 443 kts | 122° |
| 2026-05-06 02:11 | 34.89764 | -118.44906 | 28936 ft | 443 kts | 122° |
| 2026-05-06 02:12 | 34.85824 | -118.39182 | 28528 ft | 435 kts | 122° |
| 2026-05-06 02:12 | 34.83892 | -118.36381 | 28121 ft | 428 kts | 122° |
| 2026-05-06 02:12 | 34.81989 | -118.33619 | 27663 ft | 423 kts | 123° |
| 2026-05-06 02:13 | 34.80107 | -118.30891 | 27189 ft | 418 kts | 123° |
| 2026-05-06 02:13 | 34.78251 | -118.28200 | 26728 ft | 414 kts | 123° |
| 2026-05-06 02:13 | 34.76398 | -118.25518 | 26277 ft | 413 kts | 123° |
| 2026-05-06 02:13 | 34.74548 | -118.22843 | 25832 ft | 412 kts | 124° |
| 2026-05-06 02:14 | 34.72704 | -118.20177 | 25404 ft | 411 kts | 124° |
| 2026-05-06 02:14 | 34.70889 | -118.17556 | 24932 ft | 409 kts | 125° |
| 2026-05-06 02:14 | 34.69058 | -118.14914 | 24400 ft | 407 kts | 125° |
| 2026-05-06 02:14 | 34.67236 | -118.12286 | 23877 ft | 404 kts | 126° |
| 2026-05-06 02:15 | 34.65431 | -118.09685 | 23335 ft | 402 kts | 126° |
| 2026-05-06 02:15 | 34.63633 | -118.07095 | 22735 ft | 399 kts | 126° |
| 2026-05-06 02:15 | 34.62027 | -118.04383 | 22144 ft | 393 kts | 117° |
| 2026-05-06 02:15 | 34.60684 | -118.01470 | 21570 ft | 390 kts | 115° |
| 2026-05-06 02:16 | 34.59433 | -117.98595 | 21012 ft | 388 kts | 115° |
| 2026-05-06 02:16 | 34.58179 | -117.95709 | 20441 ft | 386 kts | 115° |
| 2026-05-06 02:16 | 34.56931 | -117.92877 | 19910 ft | 384 kts | 115° |
| 2026-05-06 02:16 | 34.55654 | -117.90030 | 19302 ft | 375 kts | 115° |
| 2026-05-06 02:17 | 34.54426 | -117.87323 | 18727 ft | 367 kts | 116° |
| 2026-05-06 02:17 | 34.53202 | -117.84638 | 18134 ft | 361 kts | 116° |
| 2026-05-06 02:17 | 34.51989 | -117.81989 | 17506 ft | 357 kts | 115° |
| 2026-05-06 02:17 | 34.50786 | -117.79366 | 16863 ft | 354 kts | 115° |
| 2026-05-06 02:18 | 34.49598 | -117.76776 | 16241 ft | 349 kts | 116° |
| 2026-05-06 02:18 | 34.48428 | -117.74226 | 15641 ft | 344 kts | 116° |
| 2026-05-06 02:18 | 34.47270 | -117.71706 | 15056 ft | 341 kts | 117° |
| 2026-05-06 02:18 | 34.46122 | -117.69207 | 14473 ft | 338 kts | 115° |
| 2026-05-06 02:19 | 34.44981 | -117.66728 | 13889 ft | 336 kts | 115° |
| 2026-05-06 02:19 | 34.43846 | -117.64265 | 13286 ft | 333 kts | 117° |
| 2026-05-06 02:19 | 34.42722 | -117.61829 | 12668 ft | 330 kts | 115° |
| 2026-05-06 02:19 | 34.41608 | -117.59404 | 12059 ft | 331 kts | 117° |
| 2026-05-06 02:20 | 34.39369 | -117.54555 | 11162 ft | 320 kts | 117° |
| 2026-05-06 02:20 | 34.38304 | -117.52256 | 11032 ft | 309 kts | 117° |
| 2026-05-06 02:20 | 34.37257 | -117.49990 | 11009 ft | 307 kts | 117° |
| 2026-05-06 02:21 | 34.36564 | -117.48493 | 11014 ft | 309 kts | 116° |
| 2026-05-06 02:21 | 34.35153 | -117.45444 | 11017 ft | 310 kts | 116° |
| 2026-05-06 02:21 | 34.34456 | -117.43940 | 11019 ft | 309 kts | 116° |
| 2026-05-06 02:21 | 34.33406 | -117.41675 | 10975 ft | 310 kts | 116° |
| 2026-05-06 02:22 | 34.32343 | -117.39381 | 10623 ft | 315 kts | 117° |
| 2026-05-06 02:22 | 34.31268 | -117.37065 | 10301 ft | 315 kts | 117° |
| 2026-05-06 02:22 | 34.29969 | -117.34929 | 9921 ft | 319 kts | 137° |
| 2026-05-06 02:22 | 34.27383 | -117.33380 | 9382 ft | 311 kts | 165° |
| 2026-05-06 02:23 | 34.25971 | -117.32962 | 9115 ft | 307 kts | 166° |
| 2026-05-06 02:23 | 34.23911 | -117.32388 | 8629 ft | 302 kts | 166° |
| 2026-05-06 02:23 | 34.21864 | -117.31835 | 8053 ft | 300 kts | 166° |
| 2026-05-06 02:23 | 34.19840 | -117.31281 | 7610 ft | 295 kts | 166° |
| 2026-05-06 02:24 | 34.17880 | -117.30734 | 7292 ft | 286 kts | 166° |
| 2026-05-06 02:24 | 34.15947 | -117.30186 | 6789 ft | 284 kts | 167° |
| 2026-05-06 02:24 | 34.14030 | -117.29627 | 6310 ft | 282 kts | 166° |
| 2026-05-06 02:24 | 34.12134 | -117.29054 | 5795 ft | 280 kts | 166° |
| 2026-05-06 02:25 | 34.10239 | -117.28580 | 5266 ft | 276 kts | 181° |
| 2026-05-06 02:25 | 34.08431 | -117.29144 | 4773 ft | 269 kts | 214° |
| 2026-05-06 02:25 | 34.07132 | -117.30687 | 4474 ft | 257 kts | 231° |
| 2026-05-06 02:25 | 34.06021 | -117.32335 | 4149 ft | 250 kts | 236° |
| 2026-05-06 02:26 | 34.05487 | -117.34202 | 4015 ft | 234 kts | 268° |
| 2026-05-06 02:26 | 34.05552 | -117.36110 | 3999 ft | 218 kts | 270° |
| 2026-05-06 02:26 | 34.05542 | -117.37862 | 3995 ft | 205 kts | 268° |
| 2026-05-06 02:26 | 34.05526 | -117.39563 | 3946 ft | 202 kts | 269° |
| 2026-05-06 02:27 | 34.05519 | -117.41297 | 3712 ft | 205 kts | 268° |
| 2026-05-06 02:27 | 34.05516 | -117.43000 | 3446 ft | 201 kts | 269° |
| 2026-05-06 02:27 | 34.05514 | -117.44648 | 3188 ft | 193 kts | 268° |
| 2026-05-06 02:27 | 34.05511 | -117.46223 | 2927 ft | 186 kts | 268° |
| 2026-05-06 02:28 | 34.05509 | -117.47713 | 2672 ft | 172 kts | 268° |
| 2026-05-06 02:28 | 34.05507 | -117.49120 | 2449 ft | 165 kts | 268° |
| 2026-05-06 02:28 | 34.05504 | -117.50511 | 2247 ft | 167 kts | 269° |
| 2026-05-06 02:28 | 34.05502 | -117.51896 | 2006 ft | 162 kts | 268° |
| 2026-05-06 02:29 | 34.05502 | -117.53194 | 1788 ft | 148 kts | 268° |
| 2026-05-06 02:29 | 34.05500 | -117.54393 | 1615 ft | 140 kts | 269° |
| 2026-05-06 02:29 | 34.05498 | -117.55524 | 1418 ft | 131 kts | 267° |
| 2026-05-06 02:29 | 34.05498 | -117.56619 | 1254 ft | 132 kts | 267° |
| 2026-05-06 02:30 | 34.05497 | -117.57765 | 1081 ft | 143 kts | 268° |
| 2026-05-06 02:30 | 34.05495 | -117.58912 | 945 ft | 127 kts | 267° |
| 2026-05-06 02:30 | 34.05495 | -117.59693 | 944 ft | 56 kts | 271° |
| 2026-05-06 02:30 | 34.05551 | -117.59964 | 943 ft | 18 kts | 325° |
| 2026-05-06 02:31 | 34.05620 | -117.59989 | 944 ft | 7 kts | 355° |
| 2026-05-06 02:31 | 34.05693 | -117.59992 | 944 ft | 15 kts | 359° |
| 2026-05-06 02:31 | 34.05802 | -117.59993 | 944 ft | 15 kts | 359° |
| 2026-05-06 02:31 | 34.05909 | -117.59953 | 943 ft | 18 kts | 61° |
| 2026-05-06 02:32 | 34.05924 | -117.59808 | 943 ft | 17 kts | 92° |
| 2026-05-06 02:32 | 34.05914 | -117.59666 | 943 ft | 17 kts | 95° |
| 2026-05-06 02:32 | 34.05906 | -117.59513 | 943 ft | 20 kts | 93° |
| 2026-05-06 02:32 | 34.05904 | -117.59334 | 943 ft | 22 kts | 89° |
| 2026-05-06 02:33 | 34.05903 | -117.59143 | 944 ft | 23 kts | 93° |
| 2026-05-06 02:33 | 34.05898 | -117.59023 | 944 ft | 17 kts | 89° |
| 2026-05-06 02:34 | 34.05984 | -117.58925 | 944 ft | 0 kts | 2° |